Time;durP1;ratioP1;P1;durP2;ratioP2;P2;SDS_P1;SDS_P2;PMS_P1;PMS_P2;Temp;Humidity;BMP_temperature;BMP_pressure;BME280_temperature;BME280_humidity;BME280_pressure;Samples;Min_cycle;Max_cycle;Signal;HPM_P1;HPM_P2
2022/05/27 00:00:26;;;;;;;9.38;4.70;;;;;;;15.94;70.93;94007.53;5111485;28;20519;-47
2022/05/27 00:02:52;;;;;;;6.32;5.45;;;;;;;15.83;71.17;94005.22;5111547;28;20036;-47
2022/05/27 00:05:19;;;;;;;25.48;7.07;;;;;;;15.58;71.98;94001.72;5111852;28;20097;-48
2022/05/27 00:07:44;;;;;;;7.47;5.20;;;;;;;15.45;72.47;93998.47;5111381;28;20496;-48
2022/05/27 00:10:12;;;;;;;5.55;5.05;;;;;;;15.60;71.74;94001.88;5106557;28;20032;-48
2022/05/27 00:12:37;;;;;;;7.90;4.63;;;;;;;15.70;71.21;93999.94;5111759;28;20031;-48
2022/05/27 00:15:03;;;;;;;8.32;4.93;;;;;;;15.67;70.55;93997.56;5111620;28;20038;-47
2022/05/27 00:17:29;;;;;;;5.20;4.70;;;;;;;15.35;71.61;94000.38;5111581;28;20041;-47
2022/05/27 00:19:54;;;;;;;7.38;5.00;;;;;;;15.50;70.83;94005.84;5111414;28;20560;-46
2022/05/27 00:22:20;;;;;;;7.85;4.63;;;;;;;15.40;71.21;93996.63;5111492;27;20124;-48
2022/05/27 00:24:45;;;;;;;6.63;4.85;;;;;;;15.49;71.05;93999.56;5111434;28;20100;-48
2022/05/27 00:27:11;;;;;;;7.88;5.50;;;;;;;15.51;71.06;94002.50;5110868;28;20023;-47
2022/05/27 00:29:36;;;;;;;7.72;5.03;;;;;;;15.46;71.25;93997.16;5091015;28;20054;-47
2022/05/27 00:32:03;;;;;;;8.35;5.45;;;;;;;15.52;71.49;94001.22;5090939;28;20098;-48
2022/05/27 00:34:29;;;;;;;6.00;5.13;;;;;;;15.47;71.65;93977.13;5090576;28;20659;-48
2022/05/27 00:36:54;;;;;;;6.85;5.10;;;;;;;15.45;71.23;93998.47;5091017;28;20126;-48
2022/05/27 00:39:20;;;;;;;8.75;5.57;;;;;;;15.34;71.62;93994.06;5090799;28;20100;-46
2022/05/27 00:41:45;;;;;;;5.72;5.07;;;;;;;15.34;71.37;93998.88;5090754;28;20447;-47
2022/05/27 00:44:11;;;;;;;7.32;4.93;;;;;;;15.14;71.55;93998.63;5090528;28;20115;-47
2022/05/27 00:46:40;;;;;;;6.68;5.60;;;;;;;15.11;71.67;93987.91;5090434;28;20032;-47
2022/05/27 00:49:09;;;;;;;;;;;;;;;15.14;71.52;93989.56;5090089;28;20107;-47
2022/05/27 00:51:45;;;;;;;5.63;4.70;;;;;;;15.12;71.38;93990.13;5090315;28;19915;-48
2022/05/27 00:54:13;;;;;;;5.82;5.22;;;;;;;15.02;72.00;93991.31;5089576;28;20028;-48
2022/05/27 00:56:41;;;;;;;8.93;6.18;;;;;;;15.14;71.49;93984.72;5089357;28;20107;-48
2022/05/27 00:59:34;;;;;;;5.25;4.75;;;;;;;15.17;70.68;93978.06;5089133;28;20107;-47
2022/05/27 01:01:59;;;;;;;5.15;4.65;;;;;;;14.97;71.37;93981.88;5084731;28;20036;-47
2022/05/27 01:04:28;;;;;;;5.65;4.80;;;;;;;14.83;70.89;93977.16;5090126;28;20028;-47
2022/05/27 01:06:53;;;;;;;7.35;5.30;;;;;;;14.70;71.24;93985.72;5090246;28;20032;-47
2022/05/27 01:09:19;;;;;;;18.70;6.00;;;;;;;14.79;71.27;93985.84;5097797;28;20028;-48
2022/05/27 01:12:06;;;;;;;7.72;5.00;;;;;;;14.77;71.59;93994.03;5110400;28;20589;-48
2022/05/27 01:14:49;;;;;;;10.50;6.00;;;;;;;14.74;72.13;93997.94;5110825;28;20035;-47
2022/05/27 01:17:35;;;;;;;9.27;5.20;;;;;;;14.88;71.03;93987.28;5110490;28;20556;-48
2022/05/27 01:20:18;;;;;;;9.85;5.35;;;;;;;14.77;71.67;93982.91;5110464;28;20023;-48
2022/05/27 01:23:04;;;;;;;8.57;5.28;;;;;;;14.63;71.63;93961.47;5110790;28;20043;-47
2022/05/27 01:26:07;;;;;;;7.53;5.50;;;;;;;14.50;71.94;93979.16;5092593;28;20043;-48
2022/05/27 01:29:00;;;;;;;6.95;5.10;;;;;;;14.55;71.77;93983.00;5089996;28;20039;-48
2022/05/27 01:32:05;;;;;;;7.00;5.10;;;;;;;14.40;72.03;93970.66;5089976;28;20508;-47
2022/05/27 01:34:42;;;;;;;10.05;4.95;;;;;;;14.39;72.21;93966.41;5088805;28;20489;-48
2022/05/27 01:37:20;;;;;;;5.25;4.75;;;;;;;14.16;72.40;93967.75;5090338;28;20035;-48
2022/05/27 01:40:05;;;;;;;7.45;4.80;;;;;;;14.16;72.41;93962.91;5089938;28;20565;-47
2022/05/27 01:42:52;;;;;;;6.15;5.15;;;;;;;14.15;72.45;93961.47;5088808;28;20031;-48
2022/05/27 01:45:24;;;;;;;11.07;5.35;;;;;;;14.34;72.44;93959.00;5090147;28;20111;-47
2022/05/27 01:47:57;;;;;;;7.00;5.03;;;;;;;14.38;72.03;93955.84;5088838;28;20031;-49
2022/05/27 01:50:26;;;;;;;5.93;5.15;;;;;;;14.46;71.73;93956.56;5089896;28;20708;-49
2022/05/27 01:53:11;;;;;;;6.72;5.18;;;;;;;14.50;71.67;93956.16;5090167;28;20031;-49
2022/05/27 01:55:39;;;;;;;8.73;5.72;;;;;;;14.41;71.52;93955.47;5089825;28;20016;-48
2022/05/27 01:58:32;;;;;;;7.18;5.53;;;;;;;14.35;72.21;93954.94;5088867;28;20024;-49
2022/05/27 02:00:57;;;;;;;29.50;6.40;;;;;;;14.32;71.88;93956.06;5089290;28;20036;-47
2022/05/27 02:03:36;;;;;;;7.57;5.55;;;;;;;14.06;71.52;93956.47;5088519;28;20460;-47
2022/05/27 02:06:15;;;;;;;10.27;5.70;;;;;;;13.87;72.17;93955.41;5088714;28;20035;-49
2022/05/27 02:09:04;;;;;;;6.43;5.45;;;;;;;13.95;71.62;93951.31;5091636;28;20024;-48
2022/05/27 02:11:30;;;;;;;10.93;6.35;;;;;;;13.97;71.61;93964.66;5092097;28;20532;-47
2022/05/27 02:14:11;;;;;;;6.85;5.50;;;;;;;13.87;72.16;93956.16;5092395;28;20038;-48
2022/05/27 02:16:54;;;;;;;7.28;5.68;;;;;;;13.98;72.29;93955.03;5092351;28;20042;-48
2022/05/27 02:19:30;;;;;;;8.25;5.93;;;;;;;13.84;72.54;93956.53;5092390;28;20024;-47
2022/05/27 02:22:04;;;;;;;14.90;6.47;;;;;;;13.86;72.80;93948.41;5112128;28;20557;-47
2022/05/27 02:24:43;;;;;;;10.55;6.20;;;;;;;13.88;72.66;93954.13;5113840;28;20408;-49
2022/05/27 02:27:14;;;;;;;8.38;5.90;;;;;;;13.82;72.36;93959.84;5112293;28;20411;-47
2022/05/27 02:29:43;;;;;;;8.55;6.25;;;;;;;13.83;72.11;93963.38;5112687;28;20429;-47
2022/05/27 02:32:30;;;;;;;8.70;5.70;;;;;;;13.81;72.03;93957.66;5112455;28;20016;-47
2022/05/27 02:35:10;;;;;;;5.97;5.38;;;;;;;13.80;71.95;93953.38;5113265;28;20023;-49
2022/05/27 02:37:47;;;;;;;6.45;5.70;;;;;;;13.66;72.28;93958.41;5112132;28;20023;-49
2022/05/27 02:40:22;;;;;;;6.15;5.53;;;;;;;13.64;72.34;93969.34;5112239;28;20015;-47
2022/05/27 02:43:14;;;;;;;5.82;5.13;;;;;;;13.40;72.97;93962.31;5112274;28;20463;-49
2022/05/27 02:45:45;;;;;;;5.00;4.53;;;;;;;13.57;72.90;93965.28;5112186;28;20027;-47
2022/05/27 02:48:14;;;;;;;5.53;5.00;;;;;;;13.56;72.54;93971.34;5111965;28;20504;-49
2022/05/27 02:50:54;;;;;;;6.05;5.45;;;;;;;13.63;72.54;93971.38;5113055;28;20108;-47
2022/05/27 02:53:31;;;;;;;5.75;4.80;;;;;;;13.45;72.42;93966.91;5112906;28;20027;-49
2022/05/27 02:56:16;;;;;;;11.50;6.40;;;;;;;13.16;72.96;93964.88;5113099;28;20035;-49
2022/05/27 02:58:41;;;;;;;8.25;5.13;;;;;;;13.14;72.86;93973.03;5111621;28;20524;-48
2022/05/27 03:01:07;;;;;;;9.93;6.25;;;;;;;13.17;72.89;93969.88;5113036;28;20093;-47
2022/05/27 03:03:33;;;;;;;6.65;5.68;;;;;;;13.16;73.17;93965.63;5112661;28;20061;-47
2022/05/27 03:06:23;;;;;;;5.63;5.03;;;;;;;13.26;73.23;93966.56;5112706;28;20028;-47
2022/05/27 03:09:04;;;;;;;7.13;5.20;;;;;;;13.36;72.89;93966.75;5112620;28;20054;-47
2022/05/27 03:12:08;;;;;;;19.88;5.57;;;;;;;13.43;72.88;93966.00;5112487;28;20048;-47
2022/05/27 03:14:39;;;;;;;28.27;6.88;;;;;;;13.40;73.73;93959.53;5069416;28;20668;-47
2022/05/27 03:17:26;;;;;;;8.10;5.90;;;;;;;13.45;73.45;93963.41;5069319;28;20036;-47
2022/05/27 03:20:17;;;;;;;10.57;6.53;;;;;;;13.29;73.60;93964.72;5097233;28;20501;-46
2022/05/27 03:22:45;;;;;;;20.60;6.30;;;;;;;13.28;73.81;93963.97;5111487;28;20102;-48
2022/05/27 03:25:20;;;;;;;5.82;5.22;;;;;;;13.43;73.23;93963.22;5112352;28;20081;-48
2022/05/27 03:28:24;;;;;;;6.80;5.50;;;;;;;13.53;72.77;93966.94;5112507;28;20035;-51
2022/05/27 03:30:52;;;;;;;8.55;5.68;;;;;;;13.49;72.70;93964.50;5096071;28;20449;-48
2022/05/27 03:33:25;;;;;;;5.38;4.88;;;;;;;13.37;73.09;93962.66;5112210;28;20032;-48
2022/05/27 03:36:18;;;;;;;6.22;5.60;;;;;;;13.58;72.55;93968.75;5112554;28;20110;-47
2022/05/27 03:39:04;;;;;;;7.60;5.35;;;;;;;13.62;72.08;93969.16;5095946;28;20104;-49
2022/05/27 03:41:33;;;;;;;7.57;5.68;;;;;;;13.48;72.51;93948.44;5110764;28;20024;-49
2022/05/27 03:43:59;;;;;;;6.22;5.35;;;;;;;13.61;72.29;93968.41;5111048;28;20104;-46
2022/05/27 03:46:31;;;;;;;8.07;5.70;;;;;;;13.50;72.78;93966.00;5112100;28;20040;-49
2022/05/27 03:48:56;;;;;;;6.75;5.68;;;;;;;13.60;72.97;93968.94;5111806;28;20034;-48
2022/05/27 03:51:25;;;;;;;8.10;5.50;;;;;;;13.66;72.54;93972.28;5112107;28;20032;-48
2022/05/27 03:54:05;;;;;;;16.80;6.10;;;;;;;13.79;72.89;93974.13;5111854;28;20023;-48
2022/05/27 03:56:36;;;;;;;9.02;5.95;;;;;;;13.78;73.29;93972.63;5111753;28;20157;-48
2022/05/27 03:59:03;;;;;;;10.10;6.05;;;;;;;13.83;72.91;93974.47;5110815;28;20035;-47
2022/05/27 04:01:30;;;;;;;7.13;5.35;;;;;;;13.85;73.25;93977.44;5111567;28;20020;-48
2022/05/27 04:03:57;;;;;;;6.10;5.13;;;;;;;13.90;72.52;93977.25;5111842;28;20031;-47
2022/05/27 04:06:23;;;;;;;6.03;5.07;;;;;;;13.93;71.97;93967.78;5111840;28;20023;-47
2022/05/27 04:08:48;;;;;;;11.55;5.65;;;;;;;13.95;72.70;93972.78;5107748;28;20550;-48
2022/05/27 04:11:14;;;;;;;11.50;6.47;;;;;;;14.09;72.84;93974.81;5090970;28;20039;-48
2022/05/27 04:13:39;;;;;;;12.18;7.13;;;;;;;14.20;71.65;93971.63;5103773;28;20165;-47
2022/05/27 04:16:05;;;;;;;11.05;6.90;;;;;;;14.27;70.98;93973.63;5111304;28;20035;-47
2022/05/27 04:18:30;;;;;;;8.52;6.47;;;;;;;14.39;70.61;93968.44;5111387;28;20035;-47
2022/05/27 04:20:56;;;;;;;9.68;6.78;;;;;;;14.30;71.73;93978.09;5111471;28;20408;-47
2022/05/27 04:23:21;;;;;;;7.95;6.10;;;;;;;14.45;72.34;93971.75;5111503;28;20382;-48
2022/05/27 04:25:47;;;;;;;9.40;6.22;;;;;;;14.67;72.21;93975.72;5111432;28;20027;-47
2022/05/27 04:28:13;;;;;;;9.43;7.90;;;;;;;14.73;72.76;93973.47;5111390;28;20559;-48
2022/05/27 04:30:39;;;;;;;13.55;9.80;;;;;;;14.66;72.84;93966.66;5110694;28;20076;-47
2022/05/27 04:33:04;;;;;;;10.68;9.43;;;;;;;14.78;73.33;93970.50;5111015;28;20019;-47
2022/05/27 04:35:30;;;;;;;16.33;11.45;;;;;;;15.00;73.47;93974.44;5110973;28;20035;-48
2022/05/27 04:37:55;;;;;;;29.70;11.25;;;;;;;15.17;73.74;93968.97;5111239;28;20028;-49
2022/05/27 04:40:21;;;;;;;20.38;11.25;;;;;;;15.30;73.59;93963.13;5111141;28;20470;-47
2022/05/27 04:42:47;;;;;;;16.30;12.27;;;;;;;15.43;73.61;93965.66;5110890;28;20492;-50
2022/05/27 04:45:12;;;;;;;20.92;14.48;;;;;;;15.65;72.69;93967.53;5111245;28;20122;-48
2022/05/27 04:47:38;;;;;;;30.73;18.60;;;;;;;15.90;72.56;93964.69;5111132;28;20489;-47
2022/05/27 04:50:08;;;;;;;15.10;10.00;;;;;;;16.13;72.12;93961.69;5111066;28;20032;-48
2022/05/27 04:52:34;;;;;;;11.15;8.55;;;;;;;16.33;71.52;93972.41;5111253;28;20084;-48
2022/05/27 04:55:02;;;;;;;17.83;8.75;;;;;;;16.59;70.67;93966.19;5111066;28;20027;-47
2022/05/27 04:57:31;;;;;;;7.40;6.70;;;;;;;16.71;70.75;93968.47;5111065;28;20047;-49
2022/05/27 04:59:57;;;;;;;11.85;6.18;;;;;;;16.91;70.42;93967.28;5109821;28;20153;-47
2022/05/27 05:02:24;;;;;;;19.15;5.93;;;;;;;17.18;69.56;93962.44;5110697;28;20231;-47
2022/05/27 05:04:50;;;;;;;8.95;5.47;;;;;;;17.22;68.64;93949.53;5110657;28;20024;-47
2022/05/27 05:07:16;;;;;;;6.50;5.22;;;;;;;17.49;68.04;93957.88;5110657;28;20053;-47
2022/05/27 05:09:42;;;;;;;7.10;4.97;;;;;;;17.56;67.73;93959.13;5098220;28;20532;-47
2022/05/27 05:12:09;;;;;;;15.95;8.77;;;;;;;17.59;67.67;93957.94;5090065;28;20050;-46
2022/05/27 05:14:35;;;;;;;17.40;9.18;;;;;;;17.63;68.04;93958.97;5090184;28;20024;-48
2022/05/27 05:17:00;;;;;;;20.48;10.30;;;;;;;17.75;67.96;93950.78;5090506;28;20020;-48
2022/05/27 05:19:26;;;;;;;18.85;8.80;;;;;;;17.76;67.95;93933.44;5090389;28;20446;-47
2022/05/27 05:21:51;;;;;;;25.85;8.75;;;;;;;18.12;66.97;93952.94;5090060;28;20015;-48
2022/05/27 05:24:17;;;;;;;10.05;7.05;;;;;;;18.08;66.74;93944.22;5090359;28;20020;-48
2022/05/27 05:26:42;;;;;;;21.95;7.03;;;;;;;18.20;66.93;93947.19;5090375;28;20416;-49
2022/05/27 05:29:08;;;;;;;8.38;7.13;;;;;;;18.35;67.20;93938.53;5090058;28;20489;-48
2022/05/27 05:31:34;;;;;;;16.30;7.03;;;;;;;18.46;66.70;93942.81;5090054;28;20023;-49
2022/05/27 05:33:59;;;;;;;10.70;7.35;;;;;;;18.58;66.12;93938.81;5090018;28;20031;-48
2022/05/27 05:36:29;;;;;;;38.50;8.90;;;;;;;18.76;65.56;93942.19;5088829;28;20024;-47
2022/05/27 05:38:55;;;;;;;34.38;8.02;;;;;;;19.06;65.05;93929.63;5089996;28;20441;-47
2022/05/27 05:41:32;;;;;;;10.80;6.55;;;;;;;19.20;64.80;93934.16;5089875;28;20016;-47
2022/05/27 05:43:58;;;;;;;10.30;6.60;;;;;;;19.35;63.90;93930.28;5093008;28;20039;-49
2022/05/27 05:46:25;;;;;;;8.73;6.32;;;;;;;19.44;64.20;93938.66;5093752;28;20028;-48
2022/05/27 05:48:50;;;;;;;8.25;6.28;;;;;;;19.49;64.51;93934.81;5093896;28;20016;-48
2022/05/27 05:51:17;;;;;;;8.35;5.82;;;;;;;19.81;62.79;93943.94;5093975;28;20016;-47
2022/05/27 05:53:42;;;;;;;7.13;5.05;;;;;;;19.98;62.21;93940.91;5093769;28;20024;-48
2022/05/27 05:56:08;;;;;;;11.50;5.88;;;;;;;20.04;62.02;93941.31;5093637;28;20023;-47
2022/05/27 05:58:34;;;;;;;22.15;6.75;;;;;;;19.90;61.25;93943.91;5093871;28;20099;-47
2022/05/27 06:01:00;;;;;;;9.93;5.88;;;;;;;19.96;60.50;93937.97;5093479;28;20091;-47
2022/05/27 06:03:25;;;;;;;9.40;6.18;;;;;;;19.99;61.16;93936.78;5093476;28;20032;-48
2022/05/27 06:05:52;;;;;;;28.65;6.63;;;;;;;20.12;60.69;93934.16;5103632;28;20030;-47
2022/05/27 06:08:18;;;;;;;7.55;4.30;;;;;;;20.19;59.30;93932.50;5113724;28;20727;-47
2022/05/27 06:10:47;;;;;;;12.45;4.88;;;;;;;20.28;59.69;93937.34;5113418;28;20048;-47
2022/05/27 06:13:13;;;;;;;10.13;4.30;;;;;;;20.36;58.81;93935.78;5114290;28;20115;-48
2022/05/27 06:15:38;;;;;;;5.57;4.00;;;;;;;20.51;58.18;93931.13;5113970;28;20056;-48
2022/05/27 06:18:05;;;;;;;6.32;4.00;;;;;;;20.61;57.89;93931.75;5113660;28;20480;-47
2022/05/27 06:20:31;;;;;;;10.25;3.72;;;;;;;20.62;57.85;93936.06;5113766;28;20032;-49
2022/05/27 06:22:56;;;;;;;5.82;3.67;;;;;;;20.56;57.55;93918.81;5113465;28;20027;-47
2022/05/27 06:25:22;;;;;;;6.70;2.95;;;;;;;20.89;56.35;93936.38;5113479;28;20104;-47
2022/05/27 06:27:48;;;;;;;2.88;2.10;;;;;;;21.21;54.80;93935.63;5113423;28;20026;-48
2022/05/27 06:35:24;;;;;;;2.92;1.52;;;;;;;22.65;47.89;93930.94;5113625;28;20028;-48
2022/05/27 06:37:49;;;;;;;3.47;1.80;;;;;;;22.99;46.69;93930.78;5112037;28;20019;-48
2022/05/27 06:40:16;;;;;;;1.63;1.52;;;;;;;23.07;45.38;93913.59;5113062;27;20023;-47
2022/05/27 06:42:41;;;;;;;2.45;1.35;;;;;;;23.47;46.76;93932.75;5113505;28;20461;-48
2022/05/27 06:45:10;;;;;;;2.53;1.50;;;;;;;23.65;44.97;93936.50;5113092;28;20024;-49
2022/05/27 06:47:36;;;;;;;7.80;1.73;;;;;;;23.78;45.48;93935.81;5111791;28;20565;-47
2022/05/27 06:50:02;;;;;;;1.42;1.33;;;;;;;23.93;45.34;93932.38;5113060;28;20157;-47
2022/05/27 06:52:27;;;;;;;1.98;1.50;;;;;;;24.27;43.18;93924.97;5112881;28;20766;-48
2022/05/27 06:54:53;;;;;;;4.30;1.50;;;;;;;24.47;42.32;93925.97;5112945;28;20111;-47
2022/05/27 06:57:18;;;;;;;6.45;1.38;;;;;;;24.70;41.71;93925.00;5112831;28;20023;-48
2022/05/27 06:59:44;;;;;;;2.25;1.30;;;;;;;24.75;40.41;93915.41;5113172;28;20034;-47
2022/05/27 07:02:09;;;;;;;6.10;1.80;;;;;;;25.04;41.09;93929.53;5101917;28;20036;-48
2022/05/27 07:04:35;;;;;;;9.75;1.88;;;;;;;25.13;39.69;93925.72;5092293;28;20035;-50
2022/05/27 07:07:04;;;;;;;9.90;1.70;;;;;;;25.40;39.56;93928.41;5092628;28;20035;-48
2022/05/27 07:09:31;;;;;;;2.88;1.55;;;;;;;25.72;39.68;93923.56;5105425;28;20031;-46
2022/05/27 07:11:57;;;;;;;6.53;1.60;;;;;;;26.81;37.88;93917.72;5111374;28;20044;-48
2022/05/27 07:14:22;;;;;;;5.15;1.50;;;;;;;27.63;34.51;93917.47;5112539;28;20100;-47
2022/05/27 07:16:48;;;;;;;8.65;1.95;;;;;;;27.95;34.62;93917.94;5112803;27;20027;-49
2022/05/27 07:19:14;;;;;;;6.32;2.00;;;;;;;28.54;33.25;93912.97;5112497;28;20416;-49
2022/05/27 07:21:42;;;;;;;3.60;1.58;;;;;;;29.12;32.45;93917.09;5112616;28;20034;-48
2022/05/27 07:24:09;;;;;;;2.28;2.08;;;;;;;30.28;29.35;93919.19;5112405;28;20197;-47
2022/05/27 07:26:36;;;;;;;7.80;1.85;;;;;;;31.58;27.56;93917.63;5112597;28;20076;-47
2022/05/27 07:29:02;;;;;;;7.82;2.88;;;;;;;32.29;25.96;93914.16;5112567;28;20035;-48
2022/05/27 07:31:29;;;;;;;9.88;2.08;;;;;;;32.86;24.77;93906.00;5110973;28;20413;-47
2022/05/27 07:33:55;;;;;;;8.65;1.90;;;;;;;33.95;25.06;93899.19;5112459;28;20023;-47
2022/05/27 07:36:21;;;;;;;4.03;1.20;;;;;;;34.65;23.93;93887.91;5112398;28;20030;-47
2022/05/27 07:38:47;;;;;;;6.38;3.03;;;;;;;34.59;22.88;93887.13;5112045;28;20028;-47
2022/05/27 07:41:13;;;;;;;4.50;2.40;;;;;;;35.25;22.74;93892.78;5112246;28;20031;-49
2022/05/27 07:43:38;;;;;;;7.13;2.38;;;;;;;35.82;21.46;93888.19;5111947;28;20477;-48
2022/05/27 07:46:04;;;;;;;16.35;3.35;;;;;;;36.41;21.04;93889.94;5111959;28;20027;-48
2022/05/27 07:48:29;;;;;;;4.78;2.13;;;;;;;37.19;19.71;93878.66;5111866;28;20067;-47
2022/05/27 07:50:55;;;;;;;7.50;2.35;;;;;;;37.22;19.45;93880.13;5112171;28;20019;-48
2022/05/27 07:53:22;;;;;;;3.67;3.00;;;;;;;37.68;19.09;93884.44;5112042;28;20094;-48
2022/05/27 07:55:47;;;;;;;3.67;2.22;;;;;;;37.01;19.68;93889.44;5112021;28;20108;-48
2022/05/27 07:58:13;;;;;;;3.28;1.13;;;;;;;37.52;18.54;93878.69;5102791;28;20075;-49
2022/05/27 08:00:39;;;;;;;2.17;1.27;;;;;;;38.32;18.02;93886.47;5091478;28;20024;-48
2022/05/27 08:03:05;;;;;;;1.75;0.82;;;;;;;38.53;17.07;93874.13;5091530;28;20473;-47
2022/05/27 08:05:32;;;;;;;1.50;0.85;;;;;;;38.73;16.35;93881.28;5090745;28;20059;-48
2022/05/27 08:07:58;;;;;;;17.05;1.92;;;;;;;38.97;16.48;93872.47;5091422;28;20088;-47
2022/05/27 08:10:27;;;;;;;4.75;1.13;;;;;;;39.08;16.86;93870.94;5107594;28;20055;-47
2022/05/27 08:12:52;;;;;;;5.45;1.35;;;;;;;39.15;16.33;93875.28;5110367;28;20097;-49
2022/05/27 08:15:18;;;;;;;1.05;1.00;;;;;;;39.18;16.74;93868.03;5111553;28;20023;-47
2022/05/27 08:17:44;;;;;;;2.13;1.77;;;;;;;39.57;17.13;93874.94;5111704;27;20063;-47
2022/05/27 08:20:12;;;;;;;4.43;1.10;;;;;;;38.82;18.36;93868.97;5111167;28;20140;-47
2022/05/27 08:22:38;;;;;;;3.85;1.27;;;;;;;38.45;18.22;93865.53;5111488;28;20026;-48
2022/05/27 08:25:04;;;;;;;2.13;0.90;;;;;;;38.55;17.56;93867.66;5111562;27;20019;-48
2022/05/27 08:27:30;;;;;;;4.75;1.50;;;;;;;38.67;18.37;93862.53;5111401;28;20019;-47
2022/05/27 08:29:55;;;;;;;1.30;1.20;;;;;;;38.61;17.49;93862.56;5111173;28;20023;-47
2022/05/27 08:32:21;;;;;;;4.78;1.05;;;;;;;38.77;17.83;93861.06;5111337;28;20084;-47
2022/05/27 08:40:35;;;;;;;1.70;1.35;;;;;;;38.42;18.63;93857.59;5110185;28;20096;-48
2022/05/27 08:43:15;;;;;;;1.77;1.00;;;;;;;38.68;19.17;93854.59;5110110;28;20027;-48
2022/05/27 08:45:47;;;;;;;5.25;1.15;;;;;;;38.79;19.10;93855.28;5110838;28;20117;-48
2022/05/27 08:48:13;;;;;;;3.85;1.00;;;;;;;38.96;19.68;93847.94;5110905;28;20106;-48
2022/05/27 08:51:13;;;;;;;2.78;1.10;;;;;;;39.64;18.94;93856.09;5109621;28;20027;-50
2022/05/27 08:53:43;;;;;;;1.77;1.10;;;;;;;39.89;18.59;93853.69;5085734;28;20320;-48
2022/05/27 08:59:27;;;;;;;1.75;1.23;;;;;;;39.21;19.52;93857.88;5089605;28;20034;-48
2022/05/27 09:02:23;;;;;;;1.92;1.10;;;;;;;38.92;18.82;93857.34;5089456;28;20409;-49
2022/05/27 09:05:14;;;;;;;2.03;1.48;;;;;;;38.46;19.51;93857.59;5088279;28;20046;-47
2022/05/27 09:07:57;;;;;;;10.10;1.52;;;;;;;38.28;19.37;93849.72;5089511;28;20032;-47
2022/05/27 09:10:43;;;;;;;4.63;1.42;;;;;;;38.44;21.31;93852.53;5105656;28;20051;-47
2022/05/27 09:13:37;;;;;;;2.33;1.33;;;;;;;37.83;20.57;93854.19;5110934;28;20076;-49
2022/05/27 09:16:24;;;;;;;3.90;1.20;;;;;;;37.54;20.52;93850.59;5109691;28;20038;-48
2022/05/27 09:19:28;;;;;;;13.20;2.85;;;;;;;37.91;21.03;93846.22;5115130;28;20057;-48
2022/05/27 09:21:59;;;;;;;6.30;1.40;;;;;;;38.32;20.02;93843.22;5071542;28;20075;-48
2022/05/27 09:24:30;;;;;;;2.60;1.48;;;;;;;38.88;19.79;93833.56;5107210;28;20450;-47
2022/05/27 09:27:08;;;;;;;2.92;1.30;;;;;;;38.93;19.90;93834.97;5114972;28;20047;-49
2022/05/27 09:30:03;;;;;;;2.50;1.07;;;;;;;39.55;19.88;93837.38;5114967;28;20401;-49
2022/05/27 09:32:49;;;;;;;5.90;1.80;;;;;;;39.74;19.21;93829.28;5114535;28;20397;-48
2022/05/27 09:35:20;;;;;;;1.77;1.20;;;;;;;40.10;18.89;93829.63;5114068;28;20503;-50
2022/05/27 09:37:48;;;;;;;5.93;1.40;;;;;;;39.98;18.72;93823.97;5114838;28;20081;-48
2022/05/27 09:40:17;;;;;;;4.93;1.40;;;;;;;39.75;20.02;93825.63;5079424;28;20579;-48
2022/05/27 09:43:09;;;;;;;4.05;1.42;;;;;;;40.08;18.33;93826.03;5113478;28;20080;-48
2022/05/27 09:45:35;;;;;;;3.53;1.25;;;;;;;39.63;17.24;93820.00;5113383;28;20024;-48
2022/05/27 09:48:04;;;;;;;3.83;1.45;;;;;;;39.27;18.91;93817.38;5114270;28;20028;-48
2022/05/27 09:50:42;;;;;;;5.40;1.88;;;;;;;39.14;19.27;93816.06;5105668;28;20054;-48
2022/05/27 09:53:08;;;;;;;2.35;1.27;;;;;;;39.44;19.32;93809.31;5092548;28;20103;-48
2022/05/27 09:55:46;;;;;;;1.50;1.30;;;;;;;39.26;20.11;93815.97;5092486;28;20036;-48
2022/05/27 09:58:12;;;;;;;3.10;1.48;;;;;;;39.21;20.41;93820.34;5092475;28;20493;-47
2022/05/27 10:00:44;;;;;;;6.32;1.90;;;;;;;39.36;20.21;93810.09;5093538;28;20024;-47
2022/05/27 10:03:19;;;;;;;2.80;1.50;;;;;;;39.46;19.40;93809.28;5092623;28;20028;-48
2022/05/27 10:05:54;;;;;;;1.83;1.20;;;;;;;39.29;18.92;93802.91;5093910;28;20114;-50
2022/05/27 10:08:40;;;;;;;2.28;1.38;;;;;;;38.55;21.38;93807.75;5093421;28;20051;-48
2022/05/27 10:11:49;;;;;;;3.58;1.30;;;;;;;38.70;20.10;93799.75;5093256;28;20036;-51
2022/05/27 10:14:20;;;;;;;2.25;1.20;;;;;;;38.29;20.71;93802.13;5085135;28;20083;-48
2022/05/27 10:17:09;;;;;;;2.33;1.55;;;;;;;38.77;20.55;93792.47;5093305;28;20024;-49
2022/05/27 10:19:39;;;;;;;4.43;1.60;;;;;;;38.46;19.79;93794.84;5093559;28;20032;-51
2022/05/27 10:22:09;;;;;;;5.95;1.40;;;;;;;38.27;20.27;93792.78;5093487;28;20113;-50
2022/05/27 10:24:38;;;;;;;6.22;1.95;;;;;;;38.01;21.07;93787.78;5092325;28;20394;-48
2022/05/27 10:27:09;;;;;;;2.05;1.30;;;;;;;37.98;20.61;93783.50;5091917;28;20107;-48
2022/05/27 10:29:49;;;;;;;4.97;1.50;;;;;;;37.95;21.71;93774.13;5092345;28;20467;-47
2022/05/27 10:32:44;;;;;;;5.72;1.92;;;;;;;37.08;22.65;93776.44;5093310;28;20027;-48
2022/05/27 10:35:15;;;;;;;2.10;1.27;;;;;;;36.83;22.02;93780.00;5083962;28;20036;-48
2022/05/27 10:38:10;;;;;;;4.28;1.60;;;;;;;37.07;21.38;93775.00;5093528;28;20027;-48
2022/05/27 10:40:45;;;;;;;4.47;1.83;;;;;;;37.37;21.84;93777.16;5093098;28;20035;-49
2022/05/27 10:43:25;;;;;;;3.15;1.42;;;;;;;36.87;23.08;93768.50;5093152;28;20074;-49
2022/05/27 10:45:53;;;;;;;2.63;1.25;;;;;;;36.97;21.72;93760.59;5092783;28;20016;-48
2022/05/27 10:48:52;;;;;;;2.78;1.10;;;;;;;37.23;22.70;93765.66;5092571;28;20081;-49
2022/05/27 10:51:39;;;;;;;4.30;1.35;;;;;;;37.51;22.08;93768.47;5092880;28;20036;-48
2022/05/27 10:54:35;;;;;;;2.78;1.20;;;;;;;36.90;22.89;93758.47;5092630;28;20034;-47
2022/05/27 11:03:23;;;;;;;6.25;1.35;;;;;;;35.52;25.54;93748.69;5092804;28;20039;-49
2022/05/27 11:05:57;;;;;;;8.02;1.85;;;;;;;35.16;26.19;93742.72;5092013;28;20036;-48
2022/05/27 11:08:27;;;;;;;4.97;1.63;;;;;;;34.48;26.34;93742.16;5092057;28;20066;-48
2022/05/27 11:11:17;;;;;;;4.00;1.60;;;;;;;34.27;27.56;93741.94;5112653;28;20044;-47
2022/05/27 11:17:17;;;;;;;2.20;1.65;;;;;;;33.48;28.76;93733.84;5111829;28;20448;-48
2022/05/27 11:20:04;;;;;;;2.00;1.70;;;;;;;33.19;29.39;93721.28;5112848;28;20093;-48
2022/05/27 11:22:41;;;;;;;1.77;1.58;;;;;;;33.29;28.15;93714.97;5112379;28;20032;-48
2022/05/27 11:25:22;;;;;;;6.72;1.92;;;;;;;33.29;28.77;93715.69;5112766;28;20412;-48
2022/05/27 11:27:58;;;;;;;4.40;1.42;;;;;;;32.93;28.80;93718.03;5112371;27;20561;-48
2022/05/27 11:30:48;;;;;;;7.38;1.83;;;;;;;32.22;29.92;93719.03;5111269;28;20042;-47
2022/05/27 11:33:17;;;;;;;34.40;3.05;;;;;;;31.98;31.70;93707.88;5112166;28;20063;-49
2022/05/27 11:35:55;;;;;;;4.13;1.30;;;;;;;31.86;31.84;93704.75;5111273;28;20031;-46
2022/05/27 11:38:39;;;;;;;5.75;1.42;;;;;;;31.82;31.77;93701.84;5112412;28;20050;-47
2022/05/27 11:41:14;;;;;;;5.13;2.00;;;;;;;31.41;30.34;93693.91;5111285;28;20027;-47
2022/05/27 11:43:46;;;;;;;3.95;1.50;;;;;;;31.16;31.26;93672.69;5099401;28;20131;-48
2022/05/27 11:46:42;;;;;;;5.57;1.75;;;;;;;31.30;32.19;93689.38;5091826;28;20111;-48
2022/05/27 11:49:30;;;;;;;10.00;1.92;;;;;;;31.03;32.44;93687.38;5091850;28;20027;-48
2022/05/27 11:52:01;;;;;;;8.10;2.05;;;;;;;30.66;32.38;93677.28;5091791;28;20048;-48
2022/05/27 11:54:33;;;;;;;32.30;3.83;;;;;;;30.80;33.87;93679.72;5091439;28;20111;-48
2022/05/27 11:57:24;;;;;;;9.13;2.88;;;;;;;30.85;33.29;93681.25;5091661;28;20032;-48
2022/05/27 11:59:54;;;;;;;14.88;7.57;;;;;;;30.63;33.33;93659.41;5091294;28;20027;-48
2022/05/27 12:02:23;;;;;;;11.95;4.13;;;;;;;30.65;32.88;93685.09;5089992;28;20024;-48
2022/05/27 12:05:01;;;;;;;4.47;3.15;;;;;;;30.71;33.97;93670.97;5091529;28;20119;-49
2022/05/27 12:07:40;;;;;;;3.38;1.52;;;;;;;30.35;31.89;93670.16;5091229;28;20070;-47
2022/05/27 12:10:24;;;;;;;1.98;1.30;;;;;;;30.09;32.21;93663.78;5103873;28;20059;-50
2022/05/27 12:13:01;;;;;;;3.63;1.98;;;;;;;29.75;31.71;93672.19;5111408;28;20084;-48
2022/05/27 12:15:33;;;;;;;6.18;1.50;;;;;;;29.82;33.61;93659.53;5111674;28;20051;-48
2022/05/27 12:18:01;;;;;;;8.77;1.75;;;;;;;29.75;33.54;93654.38;5110194;28;20030;-47
2022/05/27 12:20:30;;;;;;;4.10;1.90;;;;;;;29.60;35.86;93667.50;5111524;28;20098;-47